This is the latest recevied weather packets stored in our database for station/object SP8C-13. If no packets are shown the sender has not sent any weather packets the latest 10 day(s).
| Time | Temp. | Humidity | Pressure | Rain* | Wind** | Luminosity | Snow |
|---|---|---|---|---|---|---|---|
| 1777844616 | 11.11° C | 53% | 1016.3 hPa | - | - | - | - |
| 1777842816 | 11.67° C | 54% | 1016.3 hPa | - | - | - | - |
| 1777841016 | 13.33° C | 49% | 1016.3 hPa | - | - | - | - |
| 1777839215 | 14.44° C | 46% | 1016.2 hPa | - | - | - | - |
| 1777837415 | 15.56° C | 46% | 1016.3 hPa | - | - | - | - |
| 1777835615 | 16.11° C | 44% | 1016.2 hPa | - | - | - | - |
| 1777833815 | 17.22° C | 42% | 1016.1 hPa | - | - | - | - |
| 1777832015 | 19.44° C | 40% | 1016.2 hPa | - | - | - | - |
| 1777830215 | 21.11° C | 38% | 1015.9 hPa | - | - | - | - |
| 1777828415 | 22.22° C | 35% | 1016 hPa | - | - | - | - |
| 1777826615 | 23.89° C | 33% | 1016.1 hPa | - | - | - | - |
| 1777824814 | 24.44° C | 33% | 1016.2 hPa | - | - | - | - |
| 1777823014 | 25° C | 32% | 1016.4 hPa | - | - | - | - |
| 1777821214 | 25.56° C | 32% | 1016.5 hPa | - | - | - | - |
| 1777819414 | 25.56° C | 32% | 1016.9 hPa | - | - | - | - |
| 1777817614 | 25.56° C | 31% | 1017.1 hPa | - | - | - | - |
| 1777815814 | 25.56° C | 32% | 1017.5 hPa | - | - | - | - |
| 1777814014 | 25.56° C | 32% | 1017.9 hPa | - | - | - | - |
| 1777812214 | 25.56° C | 33% | 1018.2 hPa | - | - | - | - |
| 1777810413 | 25° C | 32% | 1018.3 hPa | - | - | - | - |
| 1777808613 | 25° C | 33% | 1018.7 hPa | - | - | - | - |
| 1777806813 | 25.56° C | 35% | 1019 hPa | - | - | - | - |
| 1777805013 | 25.56° C | 34% | 1019.4 hPa | - | - | - | - |
| 1777803213 | 25.56° C | 34% | 1019.8 hPa | - | - | - | - |
| 1777801413 | 25° C | 35% | 1019.9 hPa | - | - | - | - |
* Rain since midnight (hover to see other rain measurements)
** Current wind speed in m/s (hover to see current wind gust speed)